KMLJ/MLJ METAR and TAF weather

Enter ICAO airport designator
Station Type Date Time Source
KMLJ METAR 2019/04/18 14:15 UTC NOAA

KMLJ 181415Z AUTO 00000KT 10SM BKN050 20/17 A3004 RMK AO2


Station Type Date Time Source
KMLJ Decoded METAR 2019/04/18 14:15 UTC NOAA

Milledgeville, Baldwin County Airport, GA, United States (KMLJ) 33-09-15N 083-14-26W
Apr 18, 2019 - 10:15 AM EDT / 2019.04.18 1415 UTC
Wind: Calm:0
Visibility: 10 mile(s):0
Sky conditions: mostly cloudy
Temperature: 68 F (20 C)
Dew Point: 62 F (17 C)
Relative Humidity: 82%
Pressure (altimeter): 30.04 in. Hg (1017 hPa)
ob: KMLJ 181415Z AUTO 00000KT 10SM BKN050 20/17 A3004 RMK AO2
cycle: 14

Station Type Date Time Source
KMLJ TAF UTC NOAA

Error!

Example: see airport list